Time;durP1;ratioP1;P1;durP2;ratioP2;P2;SDS_P1;SDS_P2;PMS_P1;PMS_P2;Temp;Humidity;BMP_temperature;BMP_pressure;BME280_temperature;BME280_humidity;BME280_pressure;Samples;Min_cycle;Max_cycle;Signal;HPM_P1;HPM_P2
2022/12/10 00:01:51;;;;;;;2.33;2.20;;;1.00;97.30;;;;;;4994688;28;20185;-91
2022/12/10 00:04:18;;;;;;;11.23;6.93;;;1.00;97.30;;;;;;4995942;28;20208;-88
2022/12/10 00:06:44;;;;;;;7.90;3.67;;;1.00;97.30;;;;;;5012071;28;20467;-89
2022/12/10 00:09:18;;;;;;;3.80;2.97;;;1.00;97.30;;;;;;5011895;28;20466;-91
2022/12/10 00:11:44;;;;;;;3.17;2.97;;;1.00;97.30;;;;;;5012116;28;20412;-89
2022/12/10 00:14:12;;;;;;;4.70;4.50;;;0.90;97.30;;;;;;4994685;28;20494;-88
2022/12/10 00:16:37;;;;;;;5.60;3.27;;;0.90;97.30;;;;;;4987584;28;20494;-89
2022/12/10 00:19:04;;;;;;;8.80;6.47;;;0.90;97.30;;;;;;4999474;28;20888;-91
2022/12/10 00:21:32;;;;;;;20.17;5.87;;;0.90;97.30;;;;;;5015017;28;20180;-90
2022/12/10 00:24:00;;;;;;;5.50;4.27;;;0.90;97.30;;;;;;5009780;28;20428;-89
2022/12/10 00:26:30;;;;;;;5.90;3.87;;;0.90;97.30;;;;;;5012613;28;20492;-89
2022/12/10 00:28:56;;;;;;;12.37;5.63;;;0.90;97.30;;;;;;4993082;28;20445;-89
2022/12/10 00:31:29;;;;;;;3.80;3.40;;;0.80;97.30;;;;;;5001592;28;20429;-89
2022/12/10 00:34:00;;;;;;;5.47;3.83;;;0.80;97.30;;;;;;4998994;28;20435;-89
2022/12/10 00:36:29;;;;;;;9.13;4.77;;;0.80;97.30;;;;;;4990153;28;20493;-89
2022/12/10 00:38:55;;;;;;;6.40;4.37;;;0.80;97.30;;;;;;4994351;28;20505;-88
2022/12/10 00:41:21;;;;;;;8.27;3.77;;;0.80;97.30;;;;;;5010648;28;20506;-89
2022/12/10 00:43:47;;;;;;;2.53;2.33;;;0.80;97.30;;;;;;5012084;28;20420;-90
2022/12/10 00:46:14;;;;;;;5.47;5.17;;;0.80;97.30;;;;;;5011618;28;20205;-88
2022/12/10 00:48:41;;;;;;;5.67;5.37;;;0.80;97.30;;;;;;5010697;28;20431;-91
2022/12/10 00:51:08;;;;;;;7.20;4.70;;;0.80;97.30;;;;;;4998058;28;20426;-88
2022/12/10 00:53:35;;;;;;;7.07;4.77;;;0.80;97.30;;;;;;5011296;28;20417;-89
2022/12/10 00:56:03;;;;;;;5.37;4.73;;;0.80;97.30;;;;;;4994471;28;20956;-89
2022/12/10 00:58:31;;;;;;;7.70;5.40;;;0.80;97.30;;;;;;5010720;28;20957;-91
2022/12/10 01:01:07;;;;;;;9.20;6.60;;;0.80;97.30;;;;;;5010921;28;20424;-90
2022/12/10 01:03:33;;;;;;;12.27;4.80;;;0.80;97.30;;;;;;5011016;28;20435;-90
2022/12/10 01:06:10;;;;;;;3.43;3.10;;;0.80;97.30;;;;;;5010918;28;20551;-87
2022/12/10 01:08:37;;;;;;;8.57;3.80;;;0.80;97.30;;;;;;5010590;28;20303;-89
2022/12/10 01:11:02;;;;;;;12.70;2.90;;;0.80;97.30;;;;;;4980860;28;20443;-91
2022/12/10 01:13:28;;;;;;;16.87;3.07;;;0.80;97.30;;;;;;4998153;28;20919;-90
2022/12/10 01:15:54;;;;;;;8.80;6.73;;;0.80;97.30;;;;;;4992043;28;20189;-90
2022/12/10 01:18:19;;;;;;;18.13;3.80;;;0.80;97.30;;;;;;5006883;28;20555;-90
2022/12/10 01:20:45;;;;;;;4.83;3.93;;;0.80;97.30;;;;;;5005907;28;20225;-89
2022/12/10 01:23:10;;;;;;;8.03;3.40;;;0.80;97.30;;;;;;4973674;28;20189;-87
2022/12/10 01:25:36;;;;;;;6.80;5.10;;;0.80;97.30;;;;;;4987133;28;20280;-87
2022/12/10 01:28:01;;;;;;;10.37;7.10;;;0.80;97.30;;;;;;4962610;28;20696;-89
2022/12/10 01:30:27;;;;;;;6.03;3.67;;;0.80;97.30;;;;;;4961324;28;20641;-92
2022/12/10 01:32:52;;;;;;;11.13;3.13;;;0.80;97.30;;;;;;4974502;28;20672;-88
2022/12/10 01:35:18;;;;;;;4.73;4.30;;;0.80;97.30;;;;;;4975022;28;20294;-90
2022/12/10 01:37:43;;;;;;;13.73;3.77;;;0.80;97.30;;;;;;4973939;28;20688;-89
2022/12/10 01:40:10;;;;;;;6.90;4.17;;;0.80;97.30;;;;;;4979129;28;20199;-88
2022/12/10 01:42:36;;;;;;;3.83;2.73;;;0.80;97.30;;;;;;4981709;28;20201;-87
2022/12/10 01:45:07;;;;;;;7.47;4.00;;;0.80;97.30;;;;;;4970115;28;20434;-90
2022/12/10 01:47:34;;;;;;;10.43;5.67;;;0.80;97.30;;;;;;4961487;28;20431;-90
2022/12/10 01:50:01;;;;;;;9.30;6.23;;;0.80;97.30;;;;;;4990505;28;20421;-90
2022/12/10 01:52:29;;;;;;;6.00;3.40;;;0.80;97.30;;;;;;4961446;28;20498;-90
2022/12/10 01:54:55;;;;;;;6.93;4.13;;;0.80;97.30;;;;;;4978431;28;20174;-90
2022/12/10 01:57:25;;;;;;;5.43;5.00;;;0.80;97.30;;;;;;4974654;28;20441;-92
2022/12/10 02:00:04;;;;;;;6.00;4.50;;;0.80;97.30;;;;;;4975334;28;20417;-90
2022/12/10 02:02:49;;;;;;;13.97;3.87;;;0.80;97.30;;;;;;4948321;28;20423;-91
2022/12/10 02:05:51;;;;;;;4.43;4.00;;;0.90;97.30;;;;;;4984330;28;20457;-90
2022/12/10 02:08:39;;;;;;;4.03;3.43;;;0.90;97.30;;;;;;4975441;28;20441;-90
2022/12/10 02:11:24;;;;;;;6.30;4.63;;;0.90;97.30;;;;;;4983424;28;20424;-90
2022/12/10 02:14:08;;;;;;;4.83;1.73;;;0.90;97.30;;;;;;4974627;28;20967;-91
2022/12/10 02:17:02;;;;;;;4.70;3.27;;;0.90;97.30;;;;;;4975906;28;20438;-90
2022/12/10 02:20:01;;;;;;;7.10;4.90;;;0.90;97.30;;;;;;4972173;28;20535;-90
2022/12/10 02:22:33;;;;;;;4.63;4.37;;;0.90;97.30;;;;;;4969370;28;20437;-90
2022/12/10 02:25:00;;;;;;;3.37;3.17;;;0.90;97.30;;;;;;4976623;28;20420;-91
2022/12/10 02:27:32;;;;;;;3.63;2.97;;;0.90;97.30;;;;;;4977861;28;20424;-89
2022/12/10 02:30:00;;;;;;;7.57;4.60;;;0.90;97.30;;;;;;4994495;28;20798;-89
2022/12/10 02:32:32;;;;;;;6.40;3.37;;;0.90;97.30;;;;;;4991100;28;20413;-91
2022/12/10 02:35:24;;;;;;;6.77;5.00;;;0.90;97.30;;;;;;4975272;28;20402;-91
2022/12/10 02:37:59;;;;;;;9.17;4.83;;;0.90;97.30;;;;;;4975251;28;20528;-90
2022/12/10 02:40:31;;;;;;;4.70;4.03;;;0.90;97.30;;;;;;4958838;28;20429;-90
2022/12/10 02:42:56;;;;;;;4.33;4.07;;;0.90;97.30;;;;;;4949574;28;20432;-89
2022/12/10 02:45:25;;;;;;;8.33;3.97;;;0.90;97.30;;;;;;4959065;28;20487;-91
2022/12/10 02:47:56;;;;;;;5.07;4.77;;;0.90;97.30;;;;;;4975002;28;20204;-90
2022/12/10 02:50:23;;;;;;;14.83;4.10;;;0.90;97.30;;;;;;4974624;28;20416;-91
2022/12/10 02:52:49;;;;;;;4.00;3.03;;;0.90;97.30;;;;;;4963639;28;20422;-89
2022/12/10 02:55:15;;;;;;;11.53;4.87;;;0.90;97.30;;;;;;4973222;28;20940;-89
2022/12/10 02:58:04;;;;;;;8.47;4.73;;;0.90;97.30;;;;;;4973900;28;20413;-93
2022/12/10 03:00:36;;;;;;;4.73;3.90;;;0.90;97.30;;;;;;4973814;28;20503;-91
2022/12/10 03:03:17;;;;;;;1.90;1.83;;;0.90;97.30;;;;;;4971701;28;20431;-92
2022/12/10 03:06:12;;;;;;;2.83;2.63;;;0.90;97.30;;;;;;4967227;28;20970;-91
2022/12/10 03:08:50;;;;;;;6.30;3.53;;;0.90;97.30;;;;;;4985789;23;20428;-91
2022/12/10 03:11:22;;;;;;;8.30;4.33;;;0.90;97.30;;;;;;5046077;28;20917;-89
2022/12/10 03:14:05;;;;;;;5.70;3.73;;;0.90;97.30;;;;;;5023923;28;20443;-89
2022/12/10 03:16:42;;;;;;;5.50;3.10;;;0.90;97.30;;;;;;5027984;28;20429;-89
2022/12/10 03:19:13;;;;;;;11.17;2.43;;;0.90;97.30;;;;;;5031462;28;20961;-90
2022/12/10 03:21:40;;;;;;;10.60;5.30;;;0.90;97.30;;;;;;5005120;28;20431;-89
2022/12/10 03:24:08;;;;;;;4.37;3.03;;;0.90;97.30;;;;;;5009524;28;20477;-89
2022/12/10 03:26:33;;;;;;;11.10;4.47;;;0.90;97.30;;;;;;5011247;28;20455;-90
2022/12/10 03:29:06;;;;;;;8.00;5.00;;;0.90;97.30;;;;;;5014415;28;20530;-87
2022/12/10 03:31:34;;;;;;;1.30;1.20;;;0.90;97.30;;;;;;5002449;28;20605;-89
2022/12/10 03:34:00;;;;;;;4.53;3.60;;;0.90;97.30;;;;;;5014522;28;20411;-89
2022/12/10 03:36:28;;;;;;;2.73;2.57;;;0.90;97.30;;;;;;5014516;28;20425;-90
2022/12/10 03:38:54;;;;;;;12.27;3.97;;;0.90;97.30;;;;;;5031551;28;20482;-89
2022/12/10 03:41:20;;;;;;;4.40;2.10;;;0.90;97.30;;;;;;5006262;28;20451;-89
2022/12/10 03:43:55;;;;;;;5.77;3.57;;;0.90;97.30;;;;;;5009589;28;20513;-90
2022/12/10 03:46:21;;;;;;;3.83;3.33;;;0.90;97.30;;;;;;5014146;28;20578;-89
2022/12/10 03:48:47;;;;;;;7.80;2.90;;;0.90;97.30;;;;;;5014251;28;20809;-90
2022/12/10 03:51:12;;;;;;;20.80;5.20;;;0.90;97.30;;;;;;5030396;28;20417;-89
2022/12/10 03:53:38;;;;;;;20.93;5.87;;;0.90;97.30;;;;;;5013647;28;20675;-89
2022/12/10 03:56:03;;;;;;;10.50;6.60;;;0.90;97.30;;;;;;5013382;28;20603;-90
2022/12/10 03:58:29;;;;;;;12.23;5.30;;;0.90;97.30;;;;;;5004036;28;20679;-85
2022/12/10 04:00:55;;;;;;;17.50;4.80;;;0.90;97.30;;;;;;5007441;28;20207;-89
2022/12/10 04:03:20;;;;;;;6.30;2.80;;;0.90;97.30;;;;;;5013334;28;20328;-89
2022/12/10 04:05:46;;;;;;;5.00;2.53;;;0.90;97.30;;;;;;5013696;28;20200;-89
2022/12/10 04:08:11;;;;;;;11.57;4.50;;;0.90;97.30;;;;;;5010801;28;20176;-89
2022/12/10 04:10:37;;;;;;;5.10;4.80;;;0.80;97.30;;;;;;5012266;28;20220;-90
2022/12/10 04:18:32;;;;;;;14.00;6.03;;;0.80;97.30;;;;;;5030370;28;20421;-89
2022/12/10 04:29:10;;;;;;;6.70;4.93;;;0.80;97.30;;;;;;5030986;28;20505;-89
2022/12/10 04:31:35;;;;;;;3.03;2.83;;;0.80;97.30;;;;;;5024241;28;20428;-89
2022/12/10 04:34:01;;;;;;;5.57;4.63;;;0.80;97.30;;;;;;5030016;28;20180;-90
2022/12/10 04:36:26;;;;;;;4.10;3.60;;;0.80;97.30;;;;;;5013473;28;20188;-89
2022/12/10 04:38:52;;;;;;;5.50;3.63;;;0.80;97.30;;;;;;5013249;28;20241;-89
2022/12/10 04:41:18;;;;;;;12.67;4.27;;;0.80;97.30;;;;;;5012857;28;20180;-89
2022/12/10 04:43:43;;;;;;;10.33;6.70;;;0.80;97.30;;;;;;5031505;28;20262;-89
2022/12/10 04:46:10;;;;;;;9.73;8.40;;;0.80;97.30;;;;;;5011232;28;20243;-90
2022/12/10 04:48:35;;;;;;;9.90;5.70;;;0.80;97.30;;;;;;5012290;28;20180;-89
2022/12/10 04:51:01;;;;;;;9.83;5.77;;;0.80;97.30;;;;;;5012874;28;20411;-89
2022/12/10 04:53:27;;;;;;;6.73;4.57;;;0.70;97.30;;;;;;5012952;28;20180;-89
2022/12/10 04:55:52;;;;;;;8.00;4.77;;;0.70;97.30;;;;;;5012471;28;20187;-90
2022/12/10 04:58:18;;;;;;;4.87;3.90;;;0.70;97.30;;;;;;5013035;28;20191;-89
2022/12/10 05:00:43;;;;;;;4.23;3.83;;;0.70;97.30;;;;;;5030192;28;20184;-91
2022/12/10 05:03:09;;;;;;;7.87;4.87;;;0.70;97.30;;;;;;5030843;28;20177;-89
2022/12/10 05:05:35;;;;;;;5.00;4.70;;;0.70;97.30;;;;;;5012550;28;20231;-89
2022/12/10 05:08:00;;;;;;;7.40;6.90;;;0.70;97.30;;;;;;5012194;28;20183;-90
2022/12/10 05:10:26;;;;;;;6.40;4.20;;;0.70;97.30;;;;;;5011524;28;20826;-89
2022/12/10 05:12:52;;;;;;;3.83;3.43;;;0.70;97.30;;;;;;5013367;28;20172;-89
2022/12/10 05:15:17;;;;;;;4.07;3.83;;;0.70;97.30;;;;;;5009673;28;20427;-88
2022/12/10 05:17:43;;;;;;;3.97;3.77;;;0.70;97.30;;;;;;5007355;28;20191;-87
2022/12/10 05:20:09;;;;;;;17.27;5.70;;;0.70;97.30;;;;;;5008842;28;20192;-89
2022/12/10 05:25:18;;;;;;;9.90;6.20;;;0.70;97.30;;;;;;5029914;28;20458;-89
2022/12/10 05:27:44;;;;;;;7.53;3.97;;;0.70;97.30;;;;;;5025116;28;20440;-87
2022/12/10 05:30:10;;;;;;;10.33;3.90;;;0.60;97.30;;;;;;5012289;28;20200;-88
2022/12/10 05:32:36;;;;;;;4.40;4.03;;;0.60;97.30;;;;;;5032060;28;20175;-88
2022/12/10 05:35:02;;;;;;;4.60;4.00;;;0.60;97.30;;;;;;5026624;28;20462;-88
2022/12/10 05:37:28;;;;;;;9.83;5.40;;;0.60;97.30;;;;;;5004612;28;20801;-88
2022/12/10 05:39:54;;;;;;;14.33;5.60;;;0.60;97.30;;;;;;5013805;28;20451;-88
2022/12/10 05:42:19;;;;;;;4.43;4.13;;;0.60;97.30;;;;;;5014024;28;20417;-87
2022/12/10 05:44:45;;;;;;;7.73;7.33;;;0.60;97.30;;;;;;5009125;28;20272;-87
2022/12/10 05:47:11;;;;;;;4.93;3.73;;;0.50;97.30;;;;;;5013011;28;20224;-88
2022/12/10 05:49:37;;;;;;;3.20;3.00;;;0.50;97.30;;;;;;5036560;28;20882;-88
2022/12/10 05:52:02;;;;;;;3.10;2.93;;;0.50;97.30;;;;;;5016401;28;20722;-88
2022/12/10 05:54:28;;;;;;;6.53;3.83;;;0.50;97.30;;;;;;5017354;28;20258;-89
2022/12/10 05:56:54;;;;;;;17.90;4.00;;;0.50;97.30;;;;;;5015985;28;20184;-85
2022/12/10 05:59:19;;;;;;;7.07;4.03;;;0.40;97.30;;;;;;5017903;28;20231;-86
2022/12/10 06:01:48;;;;;;;2.60;2.40;;;0.40;97.30;;;;;;5034677;28;20188;-88
2022/12/10 06:04:14;;;;;;;2.80;2.37;;;0.40;97.30;;;;;;5028092;28;20193;-86
2022/12/10 06:06:40;;;;;;;4.10;3.03;;;0.40;97.30;;;;;;5023991;28;20465;-89
2022/12/10 06:09:10;;;;;;;5.13;3.53;;;0.40;97.30;;;;;;5034189;28;20227;-89
2022/12/10 06:11:35;;;;;;;22.00;4.37;;;0.40;97.30;;;;;;5015928;28;20555;-88
2022/12/10 06:14:02;;;;;;;6.67;3.47;;;0.30;97.30;;;;;;5014338;28;20435;-89
2022/12/10 06:16:28;;;;;;;5.13;4.70;;;0.30;97.30;;;;;;5018321;28;20188;-88
2022/12/10 06:18:54;;;;;;;14.80;5.73;;;0.30;97.30;;;;;;5010090;28;20440;-84
2022/12/10 06:21:20;;;;;;;6.63;5.23;;;0.30;97.30;;;;;;5011759;28;20429;-87
2022/12/10 06:23:48;;;;;;;6.63;4.50;;;0.30;97.30;;;;;;5012457;28;20459;-89
2022/12/10 06:26:24;;;;;;;10.27;5.73;;;0.30;97.30;;;;;;4995546;28;20490;-87
2022/12/10 06:28:51;;;;;;;6.47;5.33;;;0.30;97.30;;;;;;5012318;28;20446;-88
2022/12/10 06:31:17;;;;;;;2.27;2.00;;;0.30;97.30;;;;;;4998635;28;20917;-89
2022/12/10 06:33:43;;;;;;;3.57;2.77;;;0.30;97.30;;;;;;5016609;28;20503;-88
2022/12/10 06:36:10;;;;;;;8.73;5.03;;;0.30;97.30;;;;;;5012271;28;20518;-88
2022/12/10 06:38:36;;;;;;;5.47;4.87;;;0.30;97.30;;;;;;5012165;28;20201;-89
2022/12/10 06:41:07;;;;;;;13.70;5.13;;;0.30;97.30;;;;;;5014369;28;20433;-88
2022/12/10 06:43:33;;;;;;;2.83;2.63;;;0.30;97.30;;;;;;5029915;28;20466;-88
2022/12/10 06:46:03;;;;;;;10.30;4.77;;;0.30;97.30;;;;;;5035272;28;20471;-88
2022/12/10 06:48:28;;;;;;;7.33;4.23;;;0.30;97.30;;;;;;5036703;28;20180;-88
2022/12/10 06:50:55;;;;;;;2.70;2.47;;;0.30;97.30;;;;;;5012159;28;21007;-88
2022/12/10 06:53:20;;;;;;;7.40;2.80;;;0.30;97.30;;;;;;5010992;28;20666;-89
2022/12/10 06:55:48;;;;;;;6.33;4.80;;;0.20;97.30;;;;;;5029570;28;20466;-89
2022/12/10 06:58:14;;;;;;;3.80;3.17;;;0.20;97.30;;;;;;5026802;28;20186;-88
2022/12/10 07:00:45;;;;;;;1.93;1.83;;;0.20;97.30;;;;;;5008809;28;20446;-86
2022/12/10 07:03:10;;;;;;;2.07;1.93;;;0.20;97.30;;;;;;5013880;28;20688;-88
2022/12/10 07:05:48;;;;;;;3.33;2.33;;;0.20;97.30;;;;;;5015319;28;20455;-88
2022/12/10 07:08:14;;;;;;;3.60;3.40;;;0.20;97.30;;;;;;5004405;28;20581;-89
2022/12/10 07:10:39;;;;;;;8.93;4.80;;;0.20;97.30;;;;;;5012751;28;20454;-89
2022/12/10 07:13:05;;;;;;;5.03;3.67;;;0.20;97.30;;;;;;5023804;28;20415;-89
2022/12/10 07:15:31;;;;;;;7.43;5.50;;;0.10;97.30;;;;;;5007509;28;20192;-88
2022/12/10 07:17:56;;;;;;;6.43;3.90;;;0.10;97.30;;;;;;5028529;28;20218;-89
2022/12/10 07:20:22;;;;;;;7.33;5.93;;;0.10;97.30;;;;;;5015770;28;20474;-89
2022/12/10 07:22:48;;;;;;;9.40;3.33;;;0.10;97.30;;;;;;5028063;28;20191;-89
2022/12/10 07:25:13;;;;;;;5.03;4.40;;;0.10;97.30;;;;;;5011840;28;20333;-88
2022/12/10 07:27:39;;;;;;;2.60;2.30;;;0.10;97.30;;;;;;5024438;28;20199;-88
2022/12/10 07:30:05;;;;;;;5.47;5.17;;;0.10;97.30;;;;;;5017142;28;20191;-88
2022/12/10 07:32:30;;;;;;;9.57;6.47;;;0.10;97.30;;;;;;5007245;28;20180;-87
2022/12/10 07:34:56;;;;;;;2.93;2.63;;;0.10;97.30;;;;;;5020809;28;20559;-88
2022/12/10 07:37:21;;;;;;;5.53;4.07;;;0.10;97.30;;;;;;5017653;28;20654;-88
2022/12/10 07:39:47;;;;;;;19.57;5.27;;;0.10;97.30;;;;;;5007644;28;20584;-89
2022/12/10 07:42:12;;;;;;;8.13;5.40;;;0.10;97.30;;;;;;5028732;28;20887;-87
2022/12/10 07:44:38;;;;;;;8.60;4.77;;;0.10;97.30;;;;;;5013121;28;20184;-89
2022/12/10 07:47:03;;;;;;;26.70;6.37;;;0.10;97.30;;;;;;5016213;28;20666;-89
2022/12/10 07:49:29;;;;;;;8.27;4.30;;;0.10;97.30;;;;;;5008837;28;20997;-88
2022/12/10 07:51:55;;;;;;;5.77;4.27;;;0.10;97.30;;;;;;5009825;28;20600;-90
2022/12/10 07:54:20;;;;;;;3.17;3.00;;;0.10;97.30;;;;;;5009875;28;21056;-89
2022/12/10 07:56:46;;;;;;;5.27;4.97;;;0.20;97.30;;;;;;5017507;28;20188;-90
2022/12/10 07:59:12;;;;;;;9.10;3.53;;;0.20;97.30;;;;;;5035888;28;20207;-88
2022/12/10 08:01:37;;;;;;;5.50;3.23;;;0.20;97.30;;;;;;5008125;28;20187;-89
2022/12/10 08:04:03;;;;;;;18.87;3.80;;;0.10;97.30;;;;;;5003389;28;20177;-89
2022/12/10 08:06:29;;;;;;;4.13;3.27;;;0.10;97.30;;;;;;5010156;28;20209;-90
2022/12/10 08:08:59;;;;;;;6.17;4.03;;;0.10;97.30;;;;;;5012326;28;20216;-91
2022/12/10 08:11:35;;;;;;;23.27;6.07;;;0.10;97.30;;;;;;5012359;28;20439;-90
2022/12/10 08:14:03;;;;;;;3.53;3.33;;;0.10;97.30;;;;;;5002269;28;20428;-91
2022/12/10 08:16:48;;;;;;;7.40;3.90;;;0.10;97.30;;;;;;5002666;28;20471;-87
2022/12/10 08:19:30;;;;;;;4.77;2.60;;;0.10;97.30;;;;;;5010795;28;20534;-89
2022/12/10 08:21:55;;;;;;;2.90;2.70;;;0.10;97.30;;;;;;5005368;28;20423;-87
2022/12/10 08:24:21;;;;;;;7.63;5.80;;;0.10;97.30;;;;;;5009987;28;20428;-88
2022/12/10 08:26:46;;;;;;;6.80;4.30;;;0.20;97.30;;;;;;5007011;28;20303;-88
2022/12/10 08:29:12;;;;;;;15.07;5.67;;;0.20;97.30;;;;;;5029393;28;20726;-87
2022/12/10 08:31:38;;;;;;;6.00;3.30;;;0.20;97.30;;;;;;5002236;28;20549;-87
2022/12/10 08:34:04;;;;;;;6.80;4.03;;;0.20;97.30;;;;;;5003401;28;20900;-88
2022/12/10 08:36:30;;;;;;;5.70;4.83;;;0.20;97.30;;;;;;4999216;28;20197;-89
2022/12/10 08:38:58;;;;;;;11.43;4.20;;;0.30;97.30;;;;;;5012056;28;20486;-89
2022/12/10 08:41:24;;;;;;;2.93;2.30;;;0.30;97.30;;;;;;5008682;28;20188;-89
2022/12/10 08:43:52;;;;;;;4.70;4.43;;;0.30;97.30;;;;;;5018296;28;20415;-90
2022/12/10 08:46:17;;;;;;;7.97;5.10;;;0.30;97.30;;;;;;4998900;28;20855;-89
2022/12/10 08:48:43;;;;;;;1.70;1.60;;;0.30;97.30;;;;;;5011841;28;20443;-89
2022/12/10 08:51:13;;;;;;;3.50;3.30;;;0.30;97.30;;;;;;5011726;28;20537;-89
2022/12/10 08:53:38;;;;;;;3.83;2.97;;;0.30;97.30;;;;;;5004035;28;20181;-89
2022/12/10 08:56:04;;;;;;;10.87;4.23;;;0.30;97.30;;;;;;5026766;28;20928;-89
2022/12/10 08:58:30;;;;;;;11.50;7.70;;;0.30;97.30;;;;;;5013932;28;20323;-89
2022/12/10 09:00:56;;;;;;;7.80;3.10;;;0.30;97.30;;;;;;5012703;28;20181;-90
2022/12/10 09:03:21;;;;;;;16.13;6.57;;;0.30;97.30;;;;;;5012736;28;20430;-89
2022/12/10 09:05:47;;;;;;;3.10;2.90;;;0.30;97.30;;;;;;5013514;28;20273;-89
2022/12/10 09:08:13;;;;;;;3.27;3.07;;;0.30;97.30;;;;;;5013592;28;20212;-89
2022/12/10 09:10:39;;;;;;;11.60;6.00;;;0.30;97.30;;;;;;5011046;28;20478;-89
2022/12/10 09:13:05;;;;;;;10.87;4.40;;;0.30;97.30;;;;;;5002796;28;20654;-90
2022/12/10 09:15:30;;;;;;;4.97;3.57;;;0.30;97.30;;;;;;5012894;28;20502;-89
2022/12/10 09:49:29;;;;;;;4.63;3.23;;;0.30;97.30;;;;;;5034085;28;20846;-92
2022/12/10 10:13:26;;;;;;;6.60;3.63;;;0.70;97.30;;;;;;5034474;28;20483;-92
2022/12/10 10:16:17;;;;;;;2.93;2.73;;;0.70;97.30;;;;;;5038384;28;20412;-92
2022/12/10 10:19:06;;;;;;;5.37;5.10;;;0.80;97.30;;;;;;5033161;23;20507;-94
2022/12/10 10:21:39;;;;;;;8.63;2.60;;;0.80;97.30;;;;;;5021175;28;20422;-93
2022/12/10 10:24:36;;;;;;;4.00;3.70;;;0.80;97.30;;;;;;5022001;28;20407;-92
2022/12/10 10:28:10;;;;;;;14.97;4.00;;;0.80;97.30;;;;;;5027510;28;20458;-91
2022/12/10 10:30:46;;;;;;;7.90;3.80;;;0.90;97.30;;;;;;4984615;28;20432;-92
2022/12/10 10:33:26;;;;;;;5.40;4.93;;;0.90;97.30;;;;;;5008847;28;20426;-93
2022/12/10 10:36:21;;;;;;;4.67;3.37;;;0.90;97.30;;;;;;5004136;28;20941;-92
2022/12/10 10:39:25;;;;;;;3.70;2.97;;;0.80;97.30;;;;;;4990927;28;20505;-92
2022/12/10 10:42:32;;;;;;;10.40;4.80;;;0.80;97.30;;;;;;5021984;28;20482;-92
2022/12/10 10:45:20;;;;;;;4.47;4.03;;;0.80;97.30;;;;;;5021746;28;20415;-93
2022/12/10 10:48:23;;;;;;;2.90;2.70;;;0.80;97.30;;;;;;5002935;28;20820;-93
2022/12/10 10:51:12;;;;;;;6.23;2.70;;;0.80;97.30;;;;;;5038983;28;20441;-92
2022/12/10 10:54:04;;;;;;;6.73;4.50;;;0.80;97.30;;;;;;5020149;28;20420;-93
2022/12/10 10:56:52;;;;;;;5.33;3.40;;;0.80;97.30;;;;;;4996774;28;20464;-92
2022/12/10 10:59:36;;;;;;;4.30;3.23;;;0.80;97.30;;;;;;5008822;28;20432;-92
2022/12/10 11:02:31;;;;;;;20.07;4.97;;;0.80;97.30;;;;;;5020266;28;20494;-93
2022/12/10 11:05:04;;;;;;;3.23;2.07;;;0.80;97.30;;;;;;5020684;28;20423;-92
2022/12/10 11:13:37;;;;;;;2.83;2.40;;;0.80;97.30;;;;;;5006787;28;20447;-93
2022/12/10 11:16:16;;;;;;;6.07;3.07;;;0.80;97.30;;;;;;5000492;28;20416;-93
2022/12/10 11:19:02;;;;;;;4.03;3.27;;;0.90;97.30;;;;;;5003527;28;20478;-92
2022/12/10 11:21:29;;;;;;;5.63;5.33;;;0.80;97.30;;;;;;5000367;28;20432;-92
2022/12/10 11:24:00;;;;;;;7.70;3.70;;;0.90;97.30;;;;;;5000462;28;20412;-94
2022/12/10 11:26:47;;;;;;;6.63;3.17;;;0.90;97.30;;;;;;5005427;28;20447;-93
2022/12/10 11:29:39;;;;;;;10.57;5.83;;;0.90;97.30;;;;;;5016480;28;20438;-92
2022/12/10 11:32:36;;;;;;;2.83;2.63;;;0.90;97.30;;;;;;5018503;28;20423;-92
2022/12/10 11:36:07;;;;;;;7.00;3.00;;;0.80;97.30;;;;;;5019861;28;20414;-92
2022/12/10 11:38:47;;;;;;;2.93;2.73;;;0.80;97.30;;;;;;4876263;29;20503;-93
2022/12/10 11:45:06;;;;;;;5.33;3.60;;;0.80;97.30;;;;;;4975294;28;20548;-93
2022/12/10 11:48:16;;;;;;;3.60;2.80;;;0.80;97.30;;;;;;4970275;28;20495;-93
2022/12/10 11:50:55;;;;;;;3.63;3.40;;;0.80;97.30;;;;;;4931497;29;20835;-94
2022/12/10 11:53:49;;;;;;;8.97;5.50;;;0.70;97.30;;;;;;5014427;28;20426;-92
2022/12/10 11:56:18;;;;;;;12.87;4.57;;;0.70;97.30;;;;;;4999685;28;20424;-93
2022/12/10 11:59:40;;;;;;;4.13;3.60;;;0.70;97.30;;;;;;5012700;28;20472;-92
2022/12/10 12:05:36;;;;;;;10.80;3.13;;;0.70;97.30;;;;;;4928684;29;20438;-93
2022/12/10 12:11:49;;;;;;;4.60;3.53;;;0.70;97.30;;;;;;5010836;28;20449;-94
2022/12/10 12:14:39;;;;;;;2.60;2.40;;;0.80;97.30;;;;;;4959728;28;20492;-94
2022/12/10 12:17:20;;;;;;;5.87;3.10;;;0.70;97.30;;;;;;4939729;28;20493;-92
2022/12/10 12:20:18;;;;;;;11.20;4.97;;;0.70;97.30;;;;;;5014343;28;20521;-93
2022/12/10 12:23:00;;;;;;;6.13;2.60;;;0.80;97.30;;;;;;5005725;28;20942;-93
2022/12/10 12:29:20;;;;;;;5.60;3.10;;;0.70;97.30;;;;;;5010052;28;20455;-92
2022/12/10 12:32:18;;;;;;;4.70;3.50;;;0.80;97.30;;;;;;5001410;28;20638;-93
2022/12/10 12:35:00;;;;;;;9.90;4.13;;;0.70;97.30;;;;;;5015650;28;20512;-94
2022/12/10 12:37:50;;;;;;;5.90;5.23;;;0.80;97.30;;;;;;5029314;28;20442;-93
2022/12/10 12:40:36;;;;;;;2.77;2.60;;;0.80;97.30;;;;;;5018971;28;20449;-93
2022/12/10 12:46:58;;;;;;;6.70;5.00;;;0.80;97.30;;;;;;5014511;28;20968;-93
2022/12/10 12:49:37;;;;;;;2.33;2.13;;;0.80;97.30;;;;;;4992990;28;20523;-92
2022/12/10 12:52:29;;;;;;;11.67;5.23;;;0.80;97.30;;;;;;5005935;28;20419;-93
2022/12/10 12:55:10;;;;;;;9.20;4.30;;;0.80;97.30;;;;;;5017628;28;20416;-93
2022/12/10 12:58:19;;;;;;;6.47;4.23;;;0.80;97.30;;;;;;5017336;28;20471;-93
2022/12/10 13:01:01;;;;;;;;;;;;;;;;;;;;;
2022/12/10 13:03:50;;;;;;;12.37;6.00;;;0.80;97.30;;;;;;5036365;28;20414;-93
2022/12/10 13:06:37;;;;;;;13.53;4.10;;;0.90;97.30;;;;;;4996660;28;20456;-93
2022/12/10 13:09:49;;;;;;;4.83;2.80;;;0.90;97.30;;;;;;5004031;28;20555;-94
2022/12/10 13:12:30;;;;;;;3.07;2.50;;;0.90;97.30;;;;;;5003405;28;20859;-94
2022/12/10 13:14:58;;;;;;;9.73;5.57;;;0.90;97.30;;;;;;5008963;28;20410;-93
2022/12/10 13:17:37;;;;;;;5.87;4.23;;;0.90;97.30;;;;;;5021732;28;20502;-92
2022/12/10 13:20:27;;;;;;;12.10;3.70;;;0.90;97.30;;;;;;5010332;28;20424;-93
2022/12/10 13:23:30;;;;;;;5.17;4.87;;;0.90;97.30;;;;;;5014365;28;20435;-93
2022/12/10 13:25:59;;;;;;;10.43;4.33;;;0.90;97.30;;;;;;5024412;28;20453;-94
2022/12/10 13:32:47;;;;;;;2.40;2.20;;;0.90;97.30;;;;;;5002786;28;20507;-93
2022/12/10 13:38:50;;;;;;;6.33;2.80;;;0.90;97.30;;;;;;5004501;28;20545;-93
2022/12/10 13:54:59;;;;;;;7.37;3.23;;;0.90;97.30;;;;;;5010936;28;20426;-93
2022/12/10 13:57:49;;;;;;;1.73;1.70;;;0.90;97.30;;;;;;5022297;28;20450;-92
2022/12/10 14:03:25;;;;;;;5.30;3.10;;;0.80;97.30;;;;;;5000884;28;21003;-93
2022/12/10 14:05:57;;;;;;;10.03;4.10;;;0.80;97.30;;;;;;4997396;28;21047;-94
2022/12/10 14:12:29;;;;;;;3.60;3.40;;;0.80;97.30;;;;;;4959388;28;20425;-93
2022/12/10 14:32:50;;;;;;;3.50;3.33;;;0.70;97.30;;;;;;5001899;28;20488;-94
2022/12/10 14:35:29;;;;;;;3.17;2.97;;;0.70;97.30;;;;;;4997092;28;20427;-93
2022/12/10 14:37:59;;;;;;;8.50;4.50;;;0.70;97.30;;;;;;4996347;28;20439;-93
2022/12/10 14:40:50;;;;;;;4.80;2.47;;;0.70;97.30;;;;;;4999681;28;20419;-92
2022/12/10 14:49:28;;;;;;;2.97;2.80;;;0.60;97.30;;;;;;4976268;23;20537;-93
2022/12/10 14:51:57;;;;;;;6.43;4.40;;;0.60;97.30;;;;;;4957214;28;20432;-93
2022/12/10 14:54:47;;;;;;;15.63;5.17;;;0.60;97.30;;;;;;4958249;28;20531;-93
2022/12/10 14:57:30;;;;;;;7.20;3.27;;;0.60;97.30;;;;;;4948838;28;20543;-93
2022/12/10 15:00:25;;;;;;;6.43;4.00;;;0.50;97.30;;;;;;4958799;28;20452;-93
2022/12/10 15:03:19;;;;;;;11.57;5.00;;;0.50;97.30;;;;;;4938396;28;20449;-93
2022/12/10 15:05:59;;;;;;;2.83;2.63;;;0.50;97.30;;;;;;4966116;28;20468;-92
2022/12/10 15:08:26;;;;;;;5.10;3.43;;;0.50;97.30;;;;;;4958982;28;20453;-93
2022/12/10 15:10:57;;;;;;;6.00;4.40;;;0.50;97.30;;;;;;4958693;28;20428;-93
2022/12/10 15:13:27;;;;;;;5.43;3.33;;;0.50;97.30;;;;;;4958907;28;20420;-92
2022/12/10 15:15:53;;;;;;;4.47;3.13;;;0.50;97.30;;;;;;4958333;28;20429;-93
2022/12/10 15:18:25;;;;;;;4.60;3.73;;;0.60;97.30;;;;;;4979659;23;21058;-89
2022/12/10 15:20:52;;;;;;;3.77;3.13;;;0.60;97.30;;;;;;4992928;28;20413;-90
2022/12/10 15:23:18;;;;;;;4.23;3.97;;;0.60;97.30;;;;;;5014107;28;20494;-90
2022/12/10 15:25:57;;;;;;;14.00;7.00;;;0.60;97.30;;;;;;4998604;28;20531;-89
2022/12/10 15:28:37;;;;;;;5.70;2.37;;;0.50;97.30;;;;;;5007692;28;20298;-90
2022/12/10 15:31:18;;;;;;;2.53;2.33;;;0.50;97.30;;;;;;5003462;28;20985;-89
2022/12/10 15:33:50;;;;;;;5.43;4.40;;;0.50;97.30;;;;;;4995379;28;20830;-90
2022/12/10 15:36:38;;;;;;;6.20;2.70;;;0.50;97.30;;;;;;4986717;28;20429;-90
2022/12/10 15:39:10;;;;;;;23.03;4.17;;;0.50;97.30;;;;;;4976507;28;20444;-89
2022/12/10 15:41:41;;;;;;;2.93;2.77;;;0.40;97.30;;;;;;4987875;28;20431;-87
2022/12/10 15:44:30;;;;;;;9.90;5.53;;;0.40;97.30;;;;;;4983685;28;20830;-90
2022/12/10 15:46:58;;;;;;;4.50;3.37;;;0.40;97.30;;;;;;4976056;28;20466;-90
2022/12/10 15:49:24;;;;;;;12.43;4.20;;;0.40;97.30;;;;;;4995156;28;20476;-89
2022/12/10 15:51:50;;;;;;;10.30;4.27;;;0.40;97.30;;;;;;4993313;28;20950;-90